Time;durP1;ratioP1;P1;durP2;ratioP2;P2;SDS_P1;SDS_P2;PMS_P1;PMS_P2;Temp;Humidity;BMP_temperature;BMP_pressure;BME280_temperature;BME280_humidity;BME280_pressure;Samples;Min_cycle;Max_cycle;Signal;HPM_P1;HPM_P2
2023/04/11 00:01:10;;;;;;;15.25;10.05;;;3.60;99.90;;;;;;5054131;28;20109;-56
2023/04/11 00:03:37;;;;;;;15.27;9.45;;;3.60;99.90;;;;;;5053746;28;20056;-57
2023/04/11 00:06:03;;;;;;;15.48;10.27;;;3.70;99.90;;;;;;5053798;28;20036;-58
2023/04/11 00:08:29;;;;;;;14.52;10.23;;;3.70;99.90;;;;;;5053706;28;20025;-57
2023/04/11 00:10:55;;;;;;;12.82;10.13;;;3.70;99.90;;;;;;5054003;28;20047;-59
2023/04/11 00:13:22;;;;;;;14.52;11.20;;;3.70;99.90;;;;;;5053329;28;20049;-58
2023/04/11 00:15:54;;;;;;;15.00;11.18;;;3.70;99.90;;;;;;5053872;28;20048;-59
2023/04/11 00:18:21;;;;;;;16.25;12.00;;;3.80;99.90;;;;;;5053594;28;20518;-56
2023/04/11 00:20:47;;;;;;;15.68;12.55;;;3.70;99.90;;;;;;5053684;28;20032;-58
2023/04/11 00:23:13;;;;;;;15.40;11.18;;;3.70;99.90;;;;;;5053413;28;20465;-58
2023/04/11 00:25:38;;;;;;;16.83;11.90;;;3.70;99.90;;;;;;5053551;28;20032;-59
2023/04/11 00:28:04;;;;;;;15.20;11.43;;;3.70;99.90;;;;;;5054141;28;20549;-57
2023/04/11 00:30:30;;;;;;;17.63;11.63;;;3.60;99.90;;;;;;5053458;28;20056;-56
2023/04/11 00:32:55;;;;;;;16.80;12.40;;;3.50;99.90;;;;;;5053312;28;20029;-58
2023/04/11 00:35:21;;;;;;;16.92;11.80;;;3.40;99.90;;;;;;5053059;28;20032;-59
2023/04/11 00:37:52;;;;;;;16.90;12.40;;;3.40;99.90;;;;;;5053400;28;20032;-58
2023/04/11 00:40:19;;;;;;;17.48;12.30;;;3.30;99.90;;;;;;5052793;28;20029;-56
2023/04/11 00:42:45;;;;;;;17.80;11.50;;;3.30;99.90;;;;;;5051937;28;20402;-59
2023/04/11 00:45:11;;;;;;;18.67;13.02;;;3.20;99.90;;;;;;5053198;28;20105;-56
2023/04/11 00:47:37;;;;;;;16.58;12.43;;;3.20;99.90;;;;;;5052923;28;20456;-58
2023/04/11 00:50:03;;;;;;;16.05;11.48;;;3.10;99.90;;;;;;5052935;28;20052;-58
2023/04/11 00:52:29;;;;;;;14.70;10.48;;;3.10;99.90;;;;;;5052904;28;20025;-59
2023/04/11 00:54:55;;;;;;;17.27;11.07;;;3.10;99.90;;;;;;5051702;28;20044;-58
2023/04/11 00:57:24;;;;;;;13.05;10.43;;;3.10;99.90;;;;;;5052667;28;20025;-56
2023/04/11 00:59:50;;;;;;;13.70;10.32;;;3.00;99.90;;;;;;5051413;28;20029;-59
2023/04/11 01:02:17;;;;;;;14.60;9.88;;;2.90;99.90;;;;;;5052600;28;20626;-60
2023/04/11 01:04:44;;;;;;;15.57;11.73;;;2.90;99.90;;;;;;5051444;28;20574;-59
2023/04/11 01:07:11;;;;;;;14.63;10.25;;;2.90;99.90;;;;;;5051403;28;20021;-59
2023/04/11 01:09:38;;;;;;;17.63;10.73;;;3.00;99.90;;;;;;5052193;28;20427;-58
2023/04/11 01:12:05;;;;;;;11.93;9.80;;;3.00;99.90;;;;;;5052300;28;20025;-59
2023/04/11 01:14:30;;;;;;;14.93;11.15;;;3.10;99.90;;;;;;5052184;28;20041;-56
2023/04/11 01:16:57;;;;;;;14.32;11.18;;;3.10;99.90;;;;;;5052327;28;20094;-59
2023/04/11 01:19:25;;;;;;;13.43;10.13;;;3.00;99.90;;;;;;5052493;28;20017;-58
2023/04/11 01:21:52;;;;;;;14.32;10.38;;;3.00;99.90;;;;;;5050917;28;20041;-58
2023/04/11 01:24:18;;;;;;;13.10;10.07;;;3.00;99.90;;;;;;5051780;28;20533;-58
2023/04/11 01:26:44;;;;;;;14.43;9.15;;;2.90;99.90;;;;;;5051646;28;20107;-59
2023/04/11 01:29:10;;;;;;;12.38;8.77;;;2.90;99.90;;;;;;5052117;28;20031;-58
2023/04/11 01:31:36;;;;;;;10.82;9.13;;;2.80;99.90;;;;;;5052140;28;20036;-57
2023/04/11 01:34:03;;;;;;;14.43;10.27;;;2.80;99.90;;;;;;5051693;28;20042;-59
2023/04/11 01:36:30;;;;;;;13.50;10.43;;;2.80;99.90;;;;;;5052034;28;20044;-56
2023/04/11 01:39:05;;;;;;;11.00;9.23;;;2.70;99.90;;;;;;5051728;28;20072;-59
2023/04/11 01:41:32;;;;;;;14.93;10.43;;;2.70;99.90;;;;;;5051796;28;20052;-59
2023/04/11 01:43:58;;;;;;;13.25;9.45;;;2.70;99.90;;;;;;5051968;28;20116;-58
2023/04/11 01:46:24;;;;;;;14.38;10.35;;;2.70;99.90;;;;;;5052085;28;20134;-56
2023/04/11 01:48:53;;;;;;;14.00;10.77;;;2.70;99.90;;;;;;5051966;28;20404;-54
2023/04/11 01:51:19;;;;;;;11.75;9.50;;;2.70;99.90;;;;;;5051552;28;20151;-58
2023/04/11 01:53:46;;;;;;;11.98;9.32;;;2.70;99.90;;;;;;5051766;28;20479;-58
2023/04/11 01:56:13;;;;;;;12.25;9.50;;;2.70;99.90;;;;;;5051704;28;20035;-58
2023/04/11 01:58:39;;;;;;;10.98;9.07;;;2.70;99.90;;;;;;5051783;28;20451;-59
2023/04/11 02:01:05;;;;;;;13.73;9.48;;;2.70;99.90;;;;;;5051813;28;20032;-59
2023/04/11 02:03:30;;;;;;;11.73;9.55;;;2.80;99.90;;;;;;5050530;28;20021;-57
2023/04/11 02:05:56;;;;;;;14.43;9.90;;;2.90;99.90;;;;;;5051127;28;20021;-58
2023/04/11 02:08:22;;;;;;;11.63;9.68;;;2.90;99.90;;;;;;5051751;28;20017;-58
2023/04/11 02:10:47;;;;;;;17.10;10.25;;;2.90;99.90;;;;;;5051457;28;20052;-57
2023/04/11 02:13:13;;;;;;;18.98;11.35;;;2.90;99.90;;;;;;5051392;28;20044;-59
2023/04/11 02:15:40;;;;;;;13.68;9.75;;;2.90;99.90;;;;;;5051579;28;20057;-58
2023/04/11 02:18:08;;;;;;;14.68;9.68;;;3.00;99.90;;;;;;5051381;28;20013;-59
2023/04/11 02:20:36;;;;;;;12.38;9.63;;;3.00;99.90;;;;;;5051416;28;20025;-57
2023/04/11 02:23:03;;;;;;;13.55;9.77;;;3.10;99.90;;;;;;5051340;28;20487;-56
2023/04/11 02:25:29;;;;;;;13.43;10.50;;;3.10;99.90;;;;;;5051223;28;20025;-59
2023/04/11 02:27:55;;;;;;;18.48;12.20;;;3.20;99.90;;;;;;5050943;28;20572;-56
2023/04/11 02:30:20;;;;;;;15.80;10.02;;;3.30;99.90;;;;;;5050850;28;20031;-58
2023/04/11 02:32:48;;;;;;;13.93;10.18;;;3.30;99.90;;;;;;5051304;28;20021;-58
2023/04/11 02:35:15;;;;;;;16.45;10.88;;;3.30;99.90;;;;;;5050841;28;20025;-59
2023/04/11 02:37:41;;;;;;;12.60;9.95;;;3.40;99.90;;;;;;5051181;28;20041;-59
2023/04/11 02:40:08;;;;;;;15.25;10.40;;;3.50;99.90;;;;;;5050744;28;20048;-59
2023/04/11 02:42:34;;;;;;;17.00;10.63;;;3.50;99.90;;;;;;5051063;28;20648;-58
2023/04/11 02:45:00;;;;;;;11.73;10.00;;;3.50;99.90;;;;;;5051078;28;20037;-59
2023/04/11 02:47:25;;;;;;;14.77;9.60;;;3.50;99.90;;;;;;5051270;28;20033;-58
2023/04/11 02:49:51;;;;;;;16.00;10.18;;;3.50;99.90;;;;;;5051650;28;20068;-54
2023/04/11 02:52:18;;;;;;;12.18;9.23;;;3.50;99.90;;;;;;5051169;28;20025;-59
2023/04/11 02:54:44;;;;;;;16.48;10.80;;;3.30;99.90;;;;;;5050734;28;20029;-56
2023/04/11 02:57:11;;;;;;;14.18;9.80;;;3.30;99.90;;;;;;5051244;28;20059;-56
2023/04/11 02:59:37;;;;;;;18.92;10.88;;;3.30;99.90;;;;;;5050041;28;20032;-57
2023/04/11 03:02:03;;;;;;;18.10;10.43;;;3.20;99.90;;;;;;5049635;28;20049;-55
2023/04/11 03:04:29;;;;;;;18.13;10.45;;;3.20;99.90;;;;;;5051292;28;20056;-58
2023/04/11 03:06:55;;;;;;;16.80;11.88;;;3.20;99.90;;;;;;5051303;28;20465;-59
2023/04/11 03:09:22;;;;;;;16.60;10.45;;;3.10;99.90;;;;;;5050558;28;20013;-57
2023/04/11 03:11:47;;;;;;;13.85;10.27;;;3.10;99.90;;;;;;5051172;28;20052;-58
2023/04/11 03:14:13;;;;;;;13.90;10.25;;;3.10;99.90;;;;;;5050585;28;20080;-57
2023/04/11 03:16:39;;;;;;;16.35;10.32;;;3.10;99.90;;;;;;5051336;28;20025;-57
2023/04/11 03:19:05;;;;;;;19.48;11.73;;;3.00;99.90;;;;;;5054314;28;20464;-56
2023/04/11 03:21:30;;;;;;;17.25;10.70;;;3.10;99.90;;;;;;5054637;28;20029;-58
2023/04/11 03:23:56;;;;;;;15.05;10.10;;;3.20;99.90;;;;;;5054367;28;20061;-58
2023/04/11 03:26:25;;;;;;;13.27;10.15;;;3.30;99.90;;;;;;5054252;28;20033;-56
2023/04/11 03:28:52;;;;;;;17.23;12.18;;;3.40;99.90;;;;;;5052987;28;20415;-59
2023/04/11 03:31:18;;;;;;;24.35;14.35;;;3.40;99.90;;;;;;5054387;28;20025;-58
2023/04/11 03:33:45;;;;;;;26.85;15.07;;;3.50;99.90;;;;;;5052830;28;20037;-59
2023/04/11 03:36:10;;;;;;;24.15;13.23;;;3.50;99.90;;;;;;5054074;28;20021;-59
2023/04/11 03:38:36;;;;;;;14.93;10.10;;;3.60;99.90;;;;;;5054006;28;20380;-59
2023/04/11 03:41:02;;;;;;;15.00;10.90;;;3.60;99.90;;;;;;5054079;28;20032;-58
2023/04/11 03:43:28;;;;;;;20.45;9.40;;;3.60;99.90;;;;;;5054057;28;20017;-57
2023/04/11 03:45:53;;;;;;;13.77;9.35;;;3.70;99.90;;;;;;5053956;28;20029;-57
2023/04/11 03:48:19;;;;;;;20.38;10.73;;;3.70;99.90;;;;;;5053634;28;20079;-56
2023/04/11 03:50:45;;;;;;;13.02;10.38;;;3.70;99.90;;;;;;5053426;28;20032;-58
2023/04/11 03:53:10;;;;;;;14.15;9.88;;;3.80;99.90;;;;;;5035286;28;20124;-59
2023/04/11 03:55:36;;;;;;;13.85;9.80;;;3.80;99.90;;;;;;5051493;28;20667;-59
2023/04/11 03:58:01;;;;;;;21.33;11.20;;;3.80;99.90;;;;;;5053577;28;20108;-59
2023/04/11 04:00:27;;;;;;;14.95;10.68;;;3.90;99.90;;;;;;5053757;28;20596;-58
2023/04/11 04:02:53;;;;;;;15.07;10.77;;;4.00;99.90;;;;;;5053918;28;20078;-58
2023/04/11 04:05:18;;;;;;;16.25;10.40;;;4.00;99.90;;;;;;5053648;28;20044;-58
2023/04/11 04:07:44;;;;;;;13.02;9.68;;;4.00;99.90;;;;;;5052669;28;20024;-54
2023/04/11 04:10:10;;;;;;;11.90;9.40;;;4.00;99.90;;;;;;5053363;28;20439;-56
2023/04/11 04:12:35;;;;;;;13.90;9.80;;;4.00;99.90;;;;;;5053961;28;20029;-58
2023/04/11 04:15:01;;;;;;;24.40;11.25;;;4.10;99.90;;;;;;5053418;28;20063;-58
2023/04/11 04:17:27;;;;;;;16.83;11.18;;;4.20;99.90;;;;;;5053630;28;20410;-57
2023/04/11 04:19:52;;;;;;;18.90;12.57;;;4.20;99.90;;;;;;5053516;28;20482;-59
2023/04/11 04:22:18;;;;;;;19.27;10.18;;;4.20;99.90;;;;;;5053315;28;20072;-59
2023/04/11 04:24:47;;;;;;;18.00;10.43;;;4.20;99.90;;;;;;5053272;28;20052;-56
2023/04/11 04:27:12;;;;;;;16.35;10.65;;;4.30;99.90;;;;;;5053084;28;20029;-59
2023/04/11 04:29:47;;;;;;;15.75;10.55;;;4.40;99.90;;;;;;5052566;28;20036;-59
2023/04/11 04:32:19;;;;;;;18.17;10.45;;;4.40;99.90;;;;;;5052607;28;20104;-59
2023/04/11 04:34:48;;;;;;;23.73;14.13;;;4.60;99.90;;;;;;5052397;28;20466;-58
2023/04/11 04:37:20;;;;;;;17.65;11.32;;;4.70;99.90;;;;;;5053029;28;20309;-59
2023/04/11 04:39:55;;;;;;;15.60;10.02;;;4.70;99.90;;;;;;5052992;28;20112;-56
2023/04/11 04:42:26;;;;;;;14.80;9.55;;;4.80;99.90;;;;;;5053152;28;20468;-59
2023/04/11 04:44:53;;;;;;;12.25;9.40;;;4.70;99.90;;;;;;5053063;28;20029;-56
2023/04/11 04:47:21;;;;;;;13.98;10.85;;;4.70;99.90;;;;;;5052851;28;20029;-58
2023/04/11 04:49:47;;;;;;;13.95;10.55;;;4.80;99.90;;;;;;5053107;28;20040;-59
2023/04/11 04:52:13;;;;;;;13.73;10.98;;;4.80;99.90;;;;;;5052956;28;20029;-58
2023/04/11 04:54:39;;;;;;;15.50;11.23;;;4.90;99.90;;;;;;5052614;28;20032;-58
2023/04/11 04:57:06;;;;;;;19.55;13.02;;;4.90;99.90;;;;;;5052781;28;20549;-59
2023/04/11 04:59:31;;;;;;;20.50;11.95;;;5.10;99.90;;;;;;5052390;28;20029;-58
2023/04/11 05:01:57;;;;;;;19.75;12.73;;;5.10;99.90;;;;;;5049555;28;20025;-59
2023/04/11 05:04:23;;;;;;;19.13;13.50;;;5.20;99.90;;;;;;5054700;28;20017;-56
2023/04/11 05:06:49;;;;;;;16.90;12.00;;;5.30;99.90;;;;;;5051965;28;20079;-59
2023/04/11 05:09:15;;;;;;;15.50;11.57;;;5.30;99.90;;;;;;5051033;28;20025;-59
2023/04/11 05:11:41;;;;;;;16.30;11.63;;;5.40;99.90;;;;;;5061145;28;20027;-57
2023/04/11 05:14:07;;;;;;;17.08;12.02;;;5.50;99.90;;;;;;5071253;28;20391;-58
2023/04/11 05:16:32;;;;;;;15.43;11.52;;;5.50;99.90;;;;;;5057927;28;20520;-58
2023/04/11 05:18:58;;;;;;;14.27;10.73;;;5.60;99.90;;;;;;5049175;28;20064;-59
2023/04/11 05:21:24;;;;;;;18.05;11.52;;;5.70;99.90;;;;;;5048515;28;20025;-60
2023/04/11 05:23:49;;;;;;;14.68;10.88;;;5.80;99.90;;;;;;5051569;28;20506;-58
2023/04/11 05:26:15;;;;;;;16.35;11.40;;;5.80;99.90;;;;;;5051571;28;20021;-58
2023/04/11 05:28:41;;;;;;;21.73;12.52;;;5.80;99.90;;;;;;5051479;28;20099;-60
2023/04/11 05:31:08;;;;;;;18.33;12.90;;;5.80;99.90;;;;;;5058666;28;20021;-58
2023/04/11 05:33:37;;;;;;;16.02;13.15;;;5.80;99.90;;;;;;5051966;28;20358;-58
2023/04/11 05:36:03;;;;;;;17.63;12.25;;;5.80;99.90;;;;;;5050680;28;20082;-59
2023/04/11 05:38:30;;;;;;;18.45;12.20;;;5.80;99.90;;;;;;5051869;28;20029;-58
2023/04/11 05:40:55;;;;;;;18.25;13.82;;;5.80;99.90;;;;;;5051081;28;20393;-59
2023/04/11 05:43:21;;;;;;;23.20;16.25;;;5.90;99.90;;;;;;5051745;28;20055;-59
2023/04/11 05:45:47;;;;;;;75.15;38.50;;;6.00;99.90;;;;;;5051509;28;20025;-58
2023/04/11 05:48:13;;;;;;;27.50;18.13;;;6.00;99.90;;;;;;5051814;28;20174;-57
2023/04/11 05:50:40;;;;;;;33.92;24.88;;;6.10;99.90;;;;;;5051960;28;20381;-59
2023/04/11 05:53:06;;;;;;;13.70;11.38;;;6.20;99.90;;;;;;5049927;28;20024;-58
2023/04/11 05:55:32;;;;;;;21.85;16.00;;;6.40;99.90;;;;;;5051760;28;20443;-58
2023/04/11 05:57:57;;;;;;;24.75;15.15;;;6.30;99.90;;;;;;5051883;28;20032;-58
2023/04/11 06:00:24;;;;;;;19.75;13.35;;;6.30;99.90;;;;;;5051696;28;20021;-59
2023/04/11 06:02:51;;;;;;;20.65;12.02;;;6.20;99.90;;;;;;5052050;28;20025;-59
2023/04/11 06:05:17;;;;;;;17.45;12.90;;;6.20;99.90;;;;;;5050136;28;20079;-59
2023/04/11 06:07:44;;;;;;;17.42;13.02;;;6.10;99.90;;;;;;5051708;28;20029;-60
2023/04/11 06:10:10;;;;;;;15.77;11.80;;;6.10;99.90;;;;;;5050877;28;20013;-59
2023/04/11 06:12:35;;;;;;;19.02;13.75;;;6.00;99.90;;;;;;5051706;28;20503;-59
2023/04/11 06:15:01;;;;;;;20.25;14.20;;;6.00;99.90;;;;;;5051268;28;20051;-60
2023/04/11 06:17:27;;;;;;;17.35;13.48;;;6.00;99.90;;;;;;5051583;28;20031;-60
2023/04/11 06:19:53;;;;;;;15.93;12.85;;;6.10;99.90;;;;;;5051471;28;20025;-60
2023/04/11 06:22:18;;;;;;;25.23;15.57;;;6.20;99.90;;;;;;5051538;28;20024;-59
2023/04/11 06:24:44;;;;;;;22.33;16.83;;;6.30;99.90;;;;;;5051534;28;20507;-60
2023/04/11 06:27:10;;;;;;;24.83;13.57;;;6.30;99.90;;;;;;5050788;28;20033;-59
2023/04/11 06:29:40;;;;;;;19.33;12.60;;;6.40;99.90;;;;;;5051314;28;20032;-59
2023/04/11 06:32:06;;;;;;;20.20;12.90;;;6.40;99.90;;;;;;5051142;28;20036;-60
2023/04/11 06:34:33;;;;;;;17.42;12.32;;;6.40;99.90;;;;;;5051192;28;20052;-58
2023/04/11 06:36:58;;;;;;;16.90;12.55;;;6.50;99.90;;;;;;5051272;28;20028;-59
2023/04/11 06:39:24;;;;;;;14.65;11.40;;;6.60;99.90;;;;;;5051052;28;20025;-59
2023/04/11 06:41:50;;;;;;;15.02;11.73;;;6.70;99.90;;;;;;5051251;28;20021;-59
2023/04/11 06:44:16;;;;;;;14.88;11.68;;;6.90;99.90;;;;;;5053989;28;20027;-59
2023/04/11 06:46:42;;;;;;;52.50;32.92;;;7.10;99.90;;;;;;5070558;28;20024;-59
2023/04/11 06:49:08;;;;;;;21.08;14.35;;;7.20;99.90;;;;;;5070713;28;20031;-57
2023/04/11 06:51:35;;;;;;;17.83;14.85;;;7.30;99.90;;;;;;5072796;28;20097;-59
2023/04/11 06:54:02;;;;;;;13.20;9.35;;;7.50;99.90;;;;;;5074977;28;20029;-58
2023/04/11 06:56:28;;;;;;;15.27;10.77;;;7.80;99.90;;;;;;5073608;28;20027;-59
2023/04/11 06:58:54;;;;;;;13.57;11.57;;;7.80;99.90;;;;;;5074833;28;20170;-59
2023/04/11 07:01:24;;;;;;;12.60;9.73;;;7.90;99.90;;;;;;5074994;28;20104;-57
2023/04/11 07:03:51;;;;;;;11.82;8.85;;;8.20;99.90;;;;;;5075073;28;20483;-59
2023/04/11 07:06:18;;;;;;;15.35;10.40;;;8.20;99.90;;;;;;5073678;28;20020;-59
2023/04/11 07:08:44;;;;;;;12.20;8.90;;;8.20;99.90;;;;;;5075020;28;20020;-59
2023/04/11 07:11:10;;;;;;;10.23;8.82;;;8.30;99.90;;;;;;5074815;28;20067;-59
2023/04/11 07:13:36;;;;;;;16.08;6.97;;;8.60;99.90;;;;;;5074618;28;20434;-59
2023/04/11 07:16:02;;;;;;;29.13;21.60;;;8.80;99.90;;;;;;5074762;28;20041;-59
2023/04/11 07:18:29;;;;;;;15.43;9.82;;;8.90;99.90;;;;;;5074469;28;20051;-59
2023/04/11 07:20:55;;;;;;;12.98;7.03;;;9.10;99.90;;;;;;5074581;28;20035;-59
2023/04/11 07:23:20;;;;;;;7.22;5.47;;;9.40;99.90;;;;;;5074542;28;20017;-59
2023/04/11 07:25:46;;;;;;;7.75;6.15;;;9.50;99.90;;;;;;5074955;28;20078;-54
2023/04/11 07:28:12;;;;;;;7.88;5.57;;;9.50;99.90;;;;;;5074501;28;20029;-59
2023/04/11 07:30:37;;;;;;;8.65;6.28;;;9.40;99.90;;;;;;5074618;28;20035;-59
2023/04/11 07:33:03;;;;;;;9.57;5.22;;;9.50;99.90;;;;;;5074295;28;20017;-58
2023/04/11 07:35:30;;;;;;;7.78;6.00;;;9.50;99.90;;;;;;5046288;28;20044;-59
2023/04/11 07:37:57;;;;;;;8.48;6.65;;;9.50;99.90;;;;;;5043161;28;20483;-59
2023/04/11 07:40:23;;;;;;;11.07;7.72;;;9.50;99.90;;;;;;5043136;28;20036;-59
2023/04/11 07:42:49;;;;;;;13.10;7.93;;;9.50;99.90;;;;;;5043767;28;20025;-58
2023/04/11 07:45:14;;;;;;;28.45;18.88;;;9.50;99.90;;;;;;5033552;28;20037;-59
2023/04/11 07:47:40;;;;;;;28.33;16.40;;;9.50;99.90;;;;;;5023913;28;20041;-59
2023/04/11 07:50:06;;;;;;;21.02;12.90;;;9.30;99.90;;;;;;5023453;28;20025;-58
2023/04/11 07:52:32;;;;;;;8.15;5.75;;;9.40;99.90;;;;;;5023668;28;22257;-57
2023/04/11 07:54:57;;;;;;;5.03;3.65;;;9.50;99.90;;;;;;5023966;28;20098;-56
2023/04/11 07:57:23;;;;;;;7.85;4.80;;;9.40;99.90;;;;;;5022645;28;20037;-59
2023/04/11 07:59:49;;;;;;;3.92;3.28;;;9.50;99.90;;;;;;5023595;28;20033;-53
2023/04/11 08:02:14;;;;;;;5.07;4.20;;;9.50;99.90;;;;;;5022915;28;20067;-58
2023/04/11 08:04:40;;;;;;;9.73;5.07;;;9.40;99.90;;;;;;5022948;28;20501;-59
2023/04/11 08:07:06;;;;;;;12.82;7.32;;;9.40;99.90;;;;;;5022560;28;20033;-58
2023/04/11 08:09:33;;;;;;;10.68;4.82;;;9.40;99.90;;;;;;5023214;28;20507;-59
2023/04/11 08:12:00;;;;;;;6.90;4.47;;;9.40;99.90;;;;;;5023314;28;20033;-58
2023/04/11 08:14:26;;;;;;;10.48;5.10;;;9.60;99.90;;;;;;5022160;28;20052;-59
2023/04/11 08:16:52;;;;;;;6.53;3.28;;;9.70;99.90;;;;;;5023038;28;20432;-58
2023/04/11 08:19:18;;;;;;;5.68;5.10;;;9.70;99.90;;;;;;5025843;28;20061;-59
2023/04/11 08:21:43;;;;;;;13.35;5.93;;;9.80;99.90;;;;;;5022925;28;20041;-59
2023/04/11 08:24:09;;;;;;;8.32;6.03;;;9.80;99.90;;;;;;5021747;28;20029;-59
2023/04/11 08:26:35;;;;;;;12.18;9.73;;;10.00;99.90;;;;;;5022170;28;20041;-59
2023/04/11 08:29:53;;;;;;;30.83;15.05;;;10.10;99.90;;;;;;5022524;28;20029;-59
2023/04/11 08:32:19;;;;;;;13.48;6.28;;;10.20;99.90;;;;;;5074432;28;20133;-58
2023/04/11 08:34:45;;;;;;;9.52;5.68;;;10.10;99.90;;;;;;5032697;28;20224;-59
2023/04/11 08:37:11;;;;;;;4.50;3.70;;;10.10;99.90;;;;;;5022686;28;20021;-59
2023/04/11 08:39:36;;;;;;;4.15;3.75;;;10.10;99.90;;;;;;5024152;28;20029;-58
2023/04/11 08:42:02;;;;;;;11.88;4.50;;;10.20;99.90;;;;;;5032323;28;20028;-59
2023/04/11 08:44:28;;;;;;;5.00;4.22;;;10.10;99.90;;;;;;5033353;28;20033;-59
2023/04/11 08:46:54;;;;;;;5.70;4.15;;;10.20;99.90;;;;;;5033118;28;20487;-59
2023/04/11 08:49:19;;;;;;;7.82;5.00;;;10.40;99.90;;;;;;5032787;28;20029;-59
2023/04/11 08:51:46;;;;;;;19.02;9.82;;;10.40;99.90;;;;;;5033142;28;20022;-59
2023/04/11 08:54:12;;;;;;;13.68;7.85;;;10.40;99.90;;;;;;5032748;28;20021;-59
2023/04/11 08:56:41;;;;;;;7.40;5.43;;;10.40;99.90;;;;;;5032887;28;20609;-59
2023/04/11 08:59:07;;;;;;;6.28;4.88;;;10.50;99.90;;;;;;5032491;28;20024;-59
2023/04/11 09:01:33;;;;;;;6.07;4.80;;;10.50;99.90;;;;;;5032880;28;20022;-59
2023/04/11 09:04:01;;;;;;;8.55;4.50;;;10.60;99.90;;;;;;5032753;28;20104;-58
2023/04/11 09:06:31;;;;;;;8.85;3.40;;;10.70;99.90;;;;;;5032812;28;20041;-58
2023/04/11 09:09:07;;;;;;;4.55;3.45;;;10.70;99.90;;;;;;5032614;28;20027;-58
2023/04/11 09:11:53;;;;;;;4.90;3.22;;;10.70;99.90;;;;;;5032627;28;20108;-56
2023/04/11 09:14:24;;;;;;;5.90;3.55;;;10.80;99.90;;;;;;5031629;28;20045;-59
2023/04/11 09:17:03;;;;;;;5.95;4.30;;;10.60;99.90;;;;;;5032609;28;20049;-59
2023/04/11 09:19:31;;;;;;;8.93;4.90;;;10.60;99.90;;;;;;5032290;28;20380;-59
2023/04/11 09:22:04;;;;;;;3.15;2.85;;;10.50;99.90;;;;;;5032385;28;20021;-58
2023/04/11 09:24:30;;;;;;;5.18;4.13;;;10.20;99.90;;;;;;5032357;28;20041;-59
2023/04/11 09:27:18;;;;;;;3.15;2.78;;;10.20;99.90;;;;;;5032388;28;20139;-57
2023/04/11 09:29:45;;;;;;;3.50;3.20;;;10.20;99.90;;;;;;5047066;28;20032;-57
2023/04/11 09:32:34;;;;;;;3.28;2.90;;;10.20;99.90;;;;;;5052172;28;20055;-58
2023/04/11 09:35:11;;;;;;;3.13;2.75;;;10.20;99.90;;;;;;5051641;28;20048;-52
2023/04/11 09:37:57;;;;;;;3.15;2.60;;;10.40;99.90;;;;;;5052297;28;20048;-52
2023/04/11 09:40:32;;;;;;;2.58;2.08;;;10.50;99.90;;;;;;5052583;28;20017;-56
2023/04/11 09:42:59;;;;;;;3.08;2.63;;;10.50;99.90;;;;;;5051969;28;20357;-56
2023/04/11 09:45:26;;;;;;;4.07;2.40;;;10.50;99.90;;;;;;5051953;28;20059;-55
2023/04/11 09:47:54;;;;;;;3.08;2.78;;;10.40;99.90;;;;;;5051971;28;20372;-58
2023/04/11 09:50:20;;;;;;;2.88;2.60;;;10.60;99.90;;;;;;5051586;28;20038;-54
2023/04/11 09:52:46;;;;;;;6.50;4.22;;;10.60;99.90;;;;;;5051969;28;20029;-55
2023/04/11 09:55:15;;;;;;;3.42;2.58;;;10.50;99.90;;;;;;5051232;28;20059;-57
2023/04/11 09:57:46;;;;;;;3.65;2.95;;;10.40;99.90;;;;;;5050001;28;20021;-59
2023/04/11 10:00:15;;;;;;;6.50;4.97;;;10.50;99.90;;;;;;5050099;28;20017;-56
2023/04/11 10:02:42;;;;;;;3.85;2.60;;;10.30;99.90;;;;;;5051848;28;20036;-57
2023/04/11 10:05:09;;;;;;;4.22;2.25;;;10.40;99.90;;;;;;5051380;28;20021;-57
2023/04/11 10:07:43;;;;;;;2.17;1.98;;;10.40;99.90;;;;;;5051668;28;20061;-60
2023/04/11 10:10:14;;;;;;;4.82;2.05;;;10.40;99.90;;;;;;5051618;28;20025;-58
2023/04/11 10:12:40;;;;;;;3.65;2.13;;;10.40;99.90;;;;;;5051268;28;20025;-58
2023/04/11 10:15:09;;;;;;;3.25;2.17;;;10.40;99.90;;;;;;5051171;28;20044;-53
2023/04/11 10:17:35;;;;;;;2.97;2.33;;;10.30;99.90;;;;;;5051335;28;20017;-55
2023/04/11 10:20:21;;;;;;;2.42;2.22;;;10.20;99.90;;;;;;5050545;28;20024;-57
2023/04/11 10:22:50;;;;;;;3.13;2.67;;;10.00;99.90;;;;;;5050449;28;20083;-58
2023/04/11 10:25:25;;;;;;;2.20;2.08;;;10.00;99.90;;;;;;5037162;28;21936;-57
2023/04/11 10:27:55;;;;;;;4.10;2.45;;;10.10;99.90;;;;;;5034869;28;20108;-59
2023/04/11 10:30:39;;;;;;;12.50;2.50;;;10.00;99.90;;;;;;5020443;28;20480;-58
2023/04/11 10:33:09;;;;;;;2.58;2.33;;;10.10;99.90;;;;;;5020847;28;20040;-55
2023/04/11 10:35:34;;;;;;;3.90;2.05;;;10.00;99.90;;;;;;5020830;28;20037;-58
2023/04/11 10:38:00;;;;;;;2.50;2.05;;;9.90;99.90;;;;;;5020932;28;20033;-58
2023/04/11 10:40:26;;;;;;;2.88;2.15;;;9.80;99.90;;;;;;5021052;28;20029;-59
2023/04/11 10:42:51;;;;;;;2.22;2.05;;;9.80;99.90;;;;;;5022240;28;20032;-58
2023/04/11 10:45:28;;;;;;;3.90;2.08;;;9.70;99.90;;;;;;5019815;28;20040;-59
2023/04/11 10:48:24;;;;;;;2.05;1.90;;;9.80;99.90;;;;;;5022463;28;20280;-59
2023/04/11 10:50:50;;;;;;;11.85;7.72;;;9.80;99.90;;;;;;5020123;28;20029;-58
2023/04/11 10:53:36;;;;;;;4.25;2.60;;;9.80;99.90;;;;;;5019526;28;20813;-59
2023/04/11 10:56:02;;;;;;;3.53;3.22;;;9.90;99.90;;;;;;5021851;28;20372;-57
2023/04/11 10:58:36;;;;;;;3.65;3.15;;;9.90;99.90;;;;;;5020421;28;20038;-58
2023/04/11 11:01:13;;;;;;;2.83;2.63;;;10.00;99.90;;;;;;5020215;28;20033;-56
2023/04/11 11:03:39;;;;;;;2.95;2.25;;;10.00;99.90;;;;;;5023864;28;20033;-59
2023/04/11 11:06:07;;;;;;;4.10;2.40;;;10.10;99.90;;;;;;5024681;28;20103;-58
2023/04/11 11:08:36;;;;;;;1.90;1.80;;;10.10;99.90;;;;;;5020278;28;20030;-57
2023/04/11 11:11:05;;;;;;;2.33;2.00;;;9.90;99.90;;;;;;5020706;28;20030;-57
2023/04/11 11:13:59;;;;;;;4.50;2.25;;;9.70;99.90;;;;;;5019772;28;20432;-58
2023/04/11 11:16:25;;;;;;;3.85;2.55;;;9.70;99.90;;;;;;5019628;28;20127;-58
2023/04/11 11:18:53;;;;;;;3.80;2.95;;;9.20;99.90;;;;;;5020525;28;20029;-57
2023/04/11 11:21:24;;;;;;;2.92;2.65;;;8.80;99.90;;;;;;5020053;28;20021;-58
2023/04/11 11:23:57;;;;;;;2.90;2.60;;;8.70;99.90;;;;;;5019833;28;20029;-56
2023/04/11 11:26:33;;;;;;;;;;;8.60;99.90;;;;;;5020981;28;20108;-58
2023/04/11 11:28:59;;;;;;;3.05;2.75;;;8.50;99.90;;;;;;5019996;28;19959;-59
2023/04/11 11:31:34;;;;;;;2.53;2.30;;;8.50;99.90;;;;;;5020492;28;20389;-58
2023/04/11 11:34:00;;;;;;;2.85;2.53;;;8.50;99.90;;;;;;5020155;28;20644;-57
2023/04/11 11:36:27;;;;;;;5.55;1.70;;;8.50;99.90;;;;;;5020264;28;20057;-56
2023/04/11 11:38:53;;;;;;;2.40;2.03;;;8.60;99.90;;;;;;5023526;28;20022;-58
2023/04/11 11:41:18;;;;;;;2.13;1.50;;;8.60;99.90;;;;;;5022820;28;20033;-58
2023/04/11 11:43:44;;;;;;;1.27;1.27;;;8.60;99.90;;;;;;5023792;28;20033;-56
2023/04/11 11:46:14;;;;;;;2.30;2.10;;;8.60;99.90;;;;;;5024126;28;20029;-57
2023/04/11 11:48:42;;;;;;;2.45;1.90;;;8.50;99.90;;;;;;5022853;28;20412;-58
2023/04/11 11:51:08;;;;;;;2.17;1.60;;;8.50;99.90;;;;;;5023200;28;20052;-57
2023/04/11 11:53:33;;;;;;;2.38;2.05;;;8.60;99.90;;;;;;5024711;28;20449;-57
2023/04/11 11:56:10;;;;;;;14.60;10.45;;;8.50;99.90;;;;;;5022536;28;20041;-58
2023/04/11 11:58:45;;;;;;;4.28;3.42;;;8.40;99.90;;;;;;5023887;28;20025;-56
2023/04/11 12:01:14;;;;;;;3.92;3.30;;;8.30;99.90;;;;;;5023230;28;20101;-58
2023/04/11 12:03:40;;;;;;;3.50;3.20;;;8.30;99.90;;;;;;5023771;28;20113;-58
2023/04/11 12:06:09;;;;;;;3.63;3.17;;;8.30;99.90;;;;;;5024590;28;20128;-58
2023/04/11 12:08:42;;;;;;;3.15;2.10;;;8.20;99.90;;;;;;5023270;28;20037;-58
2023/04/11 12:11:13;;;;;;;3.25;2.95;;;8.30;99.90;;;;;;5023894;28;20522;-59
2023/04/11 12:13:39;;;;;;;3.72;2.30;;;8.30;99.90;;;;;;5024780;28;20037;-57
2023/04/11 12:16:05;;;;;;;2.13;1.95;;;8.10;99.90;;;;;;5022718;28;20046;-57
2023/04/11 12:18:31;;;;;;;2.10;2.00;;;8.00;99.90;;;;;;5022855;28;20035;-58
2023/04/11 12:20:57;;;;;;;2.25;1.65;;;8.00;99.90;;;;;;5023184;28;20037;-59
2023/04/11 12:23:23;;;;;;;2.20;2.00;;;8.00;99.90;;;;;;5024417;28;20022;-59
2023/04/11 12:25:49;;;;;;;2.75;2.47;;;8.10;99.90;;;;;;5022499;28;20081;-56
2023/04/11 12:28:15;;;;;;;5.10;3.17;;;8.20;99.90;;;;;;5023653;28;20033;-58
2023/04/11 12:30:40;;;;;;;1.90;1.80;;;8.20;99.90;;;;;;5023383;28;20025;-58
2023/04/11 12:33:06;;;;;;;3.78;2.55;;;8.50;99.90;;;;;;5021982;28;20042;-59
2023/04/11 12:35:32;;;;;;;3.03;2.10;;;8.40;99.90;;;;;;5022722;28;20057;-58
2023/04/11 12:37:58;;;;;;;14.25;5.32;;;8.50;99.90;;;;;;5022497;28;20018;-55
2023/04/11 12:40:24;;;;;;;2.65;2.40;;;8.70;99.90;;;;;;5022704;28;20109;-59
2023/04/11 12:42:49;;;;;;;3.58;2.22;;;9.00;99.90;;;;;;5021880;28;20397;-57
2023/04/11 12:45:15;;;;;;;7.55;4.22;;;9.30;99.90;;;;;;5022237;28;20044;-58